sensor_id;sensor_type;location;lat;lon;timestamp;pressure;altitude;pressure_sealevel;temperature;humidity
42169;BME280;27838;43.858;25.974;2023-04-19T00:00:41;100755.63;;;14.18;67.69
42169;BME280;27838;43.858;25.974;2023-04-19T00:03:09;100758.31;;;14.13;67.97
42169;BME280;27838;43.858;25.974;2023-04-19T00:05:35;100748.66;;;14.15;68.03
42169;BME280;27838;43.858;25.974;2023-04-19T00:08:04;100746.06;;;14.13;67.80
42169;BME280;27838;43.858;25.974;2023-04-19T00:10:31;100746.94;;;14.15;67.78
42169;BME280;27838;43.858;25.974;2023-04-19T00:12:57;100746.97;;;14.12;68.76
42169;BME280;27838;43.858;25.974;2023-04-19T00:15:24;100750.50;;;14.08;68.60
42169;BME280;27838;43.858;25.974;2023-04-19T00:17:50;100746.97;;;14.11;68.50
42169;BME280;27838;43.858;25.974;2023-04-19T00:20:17;100741.72;;;14.12;69.01
42169;BME280;27838;43.858;25.974;2023-04-19T00:22:44;100746.03;;;14.15;68.19
42169;BME280;27838;43.858;25.974;2023-04-19T00:25:10;100739.97;;;14.11;68.17
42169;BME280;27838;43.858;25.974;2023-04-19T00:27:37;100744.31;;;14.14;68.72
42169;BME280;27838;43.858;25.974;2023-04-19T00:30:04;100745.22;;;14.11;69.21
42169;BME280;27838;43.858;25.974;2023-04-19T00:32:31;100743.47;;;14.12;68.93
42169;BME280;27838;43.858;25.974;2023-04-19T00:34:58;100741.72;;;14.12;68.77
42169;BME280;27838;43.858;25.974;2023-04-19T00:37:24;100743.44;;;14.13;69.09
42169;BME280;27838;43.858;25.974;2023-04-19T00:39:51;100738.19;;;14.13;69.34
42169;BME280;27838;43.858;25.974;2023-04-19T00:42:17;100738.25;;;14.10;69.51
42169;BME280;27838;43.858;25.974;2023-04-19T00:44:44;100740.81;;;14.13;69.43
42169;BME280;27838;43.858;25.974;2023-04-19T00:47:11;100740.78;;;14.16;69.46
42169;BME280;27838;43.858;25.974;2023-04-19T00:49:39;100736.34;;;14.22;68.74
42169;BME280;27838;43.858;25.974;2023-04-19T00:52:07;100737.19;;;14.22;69.07
42169;BME280;27838;43.858;25.974;2023-04-19T00:54:33;100737.25;;;14.21;68.64
42169;BME280;27838;43.858;25.974;2023-04-19T00:57:00;100729.38;;;14.21;69.19
42169;BME280;27838;43.858;25.974;2023-04-19T00:59:28;100727.63;;;14.21;69.16
42169;BME280;27838;43.858;25.974;2023-04-19T01:01:55;100735.47;;;14.23;68.88
42169;BME280;27838;43.858;25.974;2023-04-19T01:04:22;100727.59;;;14.23;68.83
42169;BME280;27838;43.858;25.974;2023-04-19T01:06:49;100730.19;;;14.24;68.78
42169;BME280;27838;43.858;25.974;2023-04-19T01:09:15;100734.56;;;14.24;68.30
42169;BME280;27838;43.858;25.974;2023-04-19T01:11:42;100735.44;;;14.24;68.72
42169;BME280;27838;43.858;25.974;2023-04-19T01:14:09;100731.91;;;14.25;68.47
42169;BME280;27838;43.858;25.974;2023-04-19T01:16:35;100735.47;;;14.23;68.44
42169;BME280;27838;43.858;25.974;2023-04-19T01:19:03;100717.16;;;14.20;68.79
42169;BME280;27838;43.858;25.974;2023-04-19T01:21:29;100725.81;;;14.25;69.18
42169;BME280;27838;43.858;25.974;2023-04-19T01:23:56;100730.16;;;14.26;69.62
42169;BME280;27838;43.858;25.974;2023-04-19T01:26:24;100723.16;;;14.26;69.18
42169;BME280;27838;43.858;25.974;2023-04-19T01:28:50;100716.09;;;14.31;68.96
42169;BME280;27838;43.858;25.974;2023-04-19T01:31:17;100725.69;;;14.31;68.55
42169;BME280;27838;43.858;25.974;2023-04-19T01:33:43;100715.31;;;14.26;68.51
42169;BME280;27838;43.858;25.974;2023-04-19T01:36:10;100724.81;;;14.33;68.95
42169;BME280;27838;43.858;25.974;2023-04-19T01:38:37;100701.41;;;14.21;68.57
42169;BME280;27838;43.858;25.974;2023-04-19T01:41:03;100716.03;;;14.34;68.57
42169;BME280;27838;43.858;25.974;2023-04-19T01:43:30;100713.50;;;14.30;68.65
42169;BME280;27838;43.858;25.974;2023-04-19T01:45:57;100710.03;;;14.28;68.59
42169;BME280;27838;43.858;25.974;2023-04-19T01:48:23;100712.59;;;14.31;68.50
42169;BME280;27838;43.858;25.974;2023-04-19T01:50:50;100710.94;;;14.25;68.70
42169;BME280;27838;43.858;25.974;2023-04-19T01:53:17;100711.78;;;14.26;68.80
42169;BME280;27838;43.858;25.974;2023-04-19T01:55:44;100717.00;;;14.29;68.64
42169;BME280;27838;43.858;25.974;2023-04-19T01:58:10;100720.47;;;14.31;68.85
42169;BME280;27838;43.858;25.974;2023-04-19T02:00:37;100715.16;;;14.34;68.07
42169;BME280;27838;43.858;25.974;2023-04-19T02:03:03;100714.28;;;14.37;67.54
42169;BME280;27838;43.858;25.974;2023-04-19T02:05:30;100712.47;;;14.40;67.45
42169;BME280;27838;43.858;25.974;2023-04-19T02:07:56;100711.63;;;14.38;67.38
42169;BME280;27838;43.858;25.974;2023-04-19T02:10:25;100708.13;;;14.38;67.40
42169;BME280;27838;43.858;25.974;2023-04-19T02:12:52;100697.72;;;14.33;67.56
42169;BME280;27838;43.858;25.974;2023-04-19T02:15:18;100711.72;;;14.32;67.74
42169;BME280;27838;43.858;25.974;2023-04-19T02:17:45;100708.28;;;14.27;67.83
42169;BME280;27838;43.858;25.974;2023-04-19T02:20:11;100701.38;;;14.23;67.82
42169;BME280;27838;43.858;25.974;2023-04-19T02:22:38;100700.59;;;14.18;68.58
42169;BME280;27838;43.858;25.974;2023-04-19T02:25:05;100709.41;;;14.12;69.15
42169;BME280;27838;43.858;25.974;2023-04-19T02:27:32;100699.00;;;14.06;68.91
42169;BME280;27838;43.858;25.974;2023-04-19T02:29:58;100703.31;;;14.10;68.37
42169;BME280;27838;43.858;25.974;2023-04-19T02:32:25;100704.22;;;14.07;68.96
42169;BME280;27838;43.858;25.974;2023-04-19T02:34:51;100704.25;;;14.04;69.38
42169;BME280;27838;43.858;25.974;2023-04-19T02:37:18;100692.16;;;13.97;69.08
42169;BME280;27838;43.858;25.974;2023-04-19T02:39:44;100686.09;;;13.92;68.93
42169;BME280;27838;43.858;25.974;2023-04-19T02:42:11;100686.03;;;13.98;68.47
42169;BME280;27838;43.858;25.974;2023-04-19T02:44:37;100689.44;;;14.03;68.23
42169;BME280;27838;43.858;25.974;2023-04-19T02:47:04;100693.78;;;14.04;69.01
42169;BME280;27838;43.858;25.974;2023-04-19T02:49:32;100685.91;;;14.04;68.68
42169;BME280;27838;43.858;25.974;2023-04-19T02:52:01;100689.44;;;14.03;68.58
42169;BME280;27838;43.858;25.974;2023-04-19T02:54:27;100692.94;;;14.02;68.64
42169;BME280;27838;43.858;25.974;2023-04-19T02:56:54;100692.94;;;14.02;68.83
42169;BME280;27838;43.858;25.974;2023-04-19T02:59:20;100695.53;;;14.05;68.84
42169;BME280;27838;43.858;25.974;2023-04-19T03:01:47;100694.63;;;14.06;68.13
42169;BME280;27838;43.858;25.974;2023-04-19T03:04:13;100698.19;;;14.02;68.90
42169;BME280;27838;43.858;25.974;2023-04-19T03:06:41;100696.41;;;14.04;68.53
42169;BME280;27838;43.858;25.974;2023-04-19T03:09:08;100690.34;;;13.99;68.51
42169;BME280;27838;43.858;25.974;2023-04-19T03:11:35;100682.53;;;13.96;68.49
42169;BME280;27838;43.858;25.974;2023-04-19T03:14:02;100684.31;;;13.95;68.80
42169;BME280;27838;43.858;25.974;2023-04-19T03:16:29;100690.44;;;13.94;69.07
42169;BME280;27838;43.858;25.974;2023-04-19T03:18:55;100688.75;;;13.90;69.37
42169;BME280;27838;43.858;25.974;2023-04-19T03:21:22;100684.38;;;13.91;69.20
42169;BME280;27838;43.858;25.974;2023-04-19T03:23:52;100679.25;;;13.82;69.37
42169;BME280;27838;43.858;25.974;2023-04-19T03:26:18;100682.69;;;13.87;68.99
42169;BME280;27838;43.858;25.974;2023-04-19T03:28:45;100691.38;;;13.89;69.14
42169;BME280;27838;43.858;25.974;2023-04-19T03:31:12;100683.47;;;13.92;68.66
42169;BME280;27838;43.858;25.974;2023-04-19T03:33:39;100697.41;;;13.94;68.65
42169;BME280;27838;43.858;25.974;2023-04-19T03:36:06;100683.50;;;13.90;69.02
42169;BME280;27838;43.858;25.974;2023-04-19T03:38:32;100691.34;;;13.92;68.59
42169;BME280;27838;43.858;25.974;2023-04-19T03:40:59;100693.16;;;13.87;68.59
42169;BME280;27838;43.858;25.974;2023-04-19T03:43:25;100691.47;;;13.84;68.67
42169;BME280;27838;43.858;25.974;2023-04-19T03:45:52;100685.41;;;13.79;69.54
42169;BME280;27838;43.858;25.974;2023-04-19T03:48:18;100681.13;;;13.73;69.73
42169;BME280;27838;43.858;25.974;2023-04-19T03:50:45;100692.44;;;13.77;69.30
42169;BME280;27838;43.858;25.974;2023-04-19T03:53:11;100690.69;;;13.77;69.27
42169;BME280;27838;43.858;25.974;2023-04-19T03:55:38;100695.91;;;13.77;69.05
42169;BME280;27838;43.858;25.974;2023-04-19T03:58:04;100689.88;;;13.72;69.97
42169;BME280;27838;43.858;25.974;2023-04-19T04:00:31;100690.72;;;13.73;69.63
42169;BME280;27838;43.858;25.974;2023-04-19T04:02:57;100691.63;;;13.73;69.86
42169;BME280;27838;43.858;25.974;2023-04-19T04:05:26;100700.34;;;13.74;69.75
42169;BME280;27838;43.858;25.974;2023-04-19T04:07:53;100695.09;;;13.72;69.28
42169;BME280;27838;43.858;25.974;2023-04-19T04:10:20;100691.66;;;13.70;69.52
42169;BME280;27838;43.858;25.974;2023-04-19T04:12:47;100692.47;;;13.74;69.52
42169;BME280;27838;43.858;25.974;2023-04-19T04:15:13;100691.63;;;13.72;69.79
42169;BME280;27838;43.858;25.974;2023-04-19T04:17:40;100676.03;;;13.63;69.65
42169;BME280;27838;43.858;25.974;2023-04-19T04:20:07;100684.66;;;13.69;69.23
42169;BME280;27838;43.858;25.974;2023-04-19T04:22:40;100689.00;;;13.72;69.39
42169;BME280;27838;43.858;25.974;2023-04-19T04:25:08;100684.59;;;13.75;69.43
42169;BME280;27838;43.858;25.974;2023-04-19T04:27:36;100686.28;;;13.78;69.48
42169;BME280;27838;43.858;25.974;2023-04-19T04:30:04;100682.81;;;13.79;69.25
42169;BME280;27838;43.858;25.974;2023-04-19T04:32:31;100676.66;;;13.80;68.96
42169;BME280;27838;43.858;25.974;2023-04-19T04:35:07;100683.63;;;13.83;69.55
42169;BME280;27838;43.858;25.974;2023-04-19T04:37:35;100681.84;;;13.85;69.44
42169;BME280;27838;43.858;25.974;2023-04-19T04:40:02;100681.84;;;13.83;69.76
42169;BME280;27838;43.858;25.974;2023-04-19T04:42:30;100686.16;;;13.87;69.71
42169;BME280;27838;43.858;25.974;2023-04-19T04:44:57;100683.59;;;13.86;70.12
42169;BME280;27838;43.858;25.974;2023-04-19T04:47:32;100680.16;;;13.81;69.72
42169;BME280;27838;43.858;25.974;2023-04-19T04:49:59;100685.28;;;13.88;69.99
42169;BME280;27838;43.858;25.974;2023-04-19T04:52:26;100685.31;;;13.85;70.32
42169;BME280;27838;43.858;25.974;2023-04-19T04:54:53;100686.25;;;13.83;70.45
42169;BME280;27838;43.858;25.974;2023-04-19T04:57:19;100690.50;;;13.90;69.87
42169;BME280;27838;43.858;25.974;2023-04-19T04:59:46;100693.00;;;13.97;69.51
42169;BME280;27838;43.858;25.974;2023-04-19T05:02:13;100691.28;;;13.98;69.85
42169;BME280;27838;43.858;25.974;2023-04-19T05:04:41;100694.75;;;13.97;69.59
42169;BME280;27838;43.858;25.974;2023-04-19T05:07:07;100692.09;;;14.00;69.42
42169;BME280;27838;43.858;25.974;2023-04-19T05:09:35;100688.63;;;14.00;69.43
42169;BME280;27838;43.858;25.974;2023-04-19T05:12:01;100689.53;;;13.97;69.04
42169;BME280;27838;43.858;25.974;2023-04-19T05:14:28;100696.44;;;14.01;69.42
42169;BME280;27838;43.858;25.974;2023-04-19T05:16:54;100686.84;;;14.02;69.41
42169;BME280;27838;43.858;25.974;2023-04-19T05:19:21;100690.34;;;14.01;68.92
42169;BME280;27838;43.858;25.974;2023-04-19T05:21:47;100697.31;;;14.03;68.97
42169;BME280;27838;43.858;25.974;2023-04-19T05:24:14;100693.88;;;14.00;68.63
42169;BME280;27838;43.858;25.974;2023-04-19T05:26:40;100690.34;;;14.01;68.05
42169;BME280;27838;43.858;25.974;2023-04-19T05:29:07;100692.97;;;14.01;68.38
42169;BME280;27838;43.858;25.974;2023-04-19T05:31:33;100700.81;;;14.01;68.36
42169;BME280;27838;43.858;25.974;2023-04-19T05:34:00;100684.31;;;13.94;68.77
42169;BME280;27838;43.858;25.974;2023-04-19T05:36:26;100701.75;;;13.98;68.82
42169;BME280;27838;43.858;25.974;2023-04-19T05:38:53;100694.81;;;13.94;68.77
42169;BME280;27838;43.858;25.974;2023-04-19T05:41:20;100696.59;;;13.92;68.98
42169;BME280;27838;43.858;25.974;2023-04-19T05:43:46;100693.13;;;13.90;68.25
42169;BME280;27838;43.858;25.974;2023-04-19T05:46:13;100692.25;;;13.91;67.06
42169;BME280;27838;43.858;25.974;2023-04-19T05:48:39;100695.63;;;13.96;67.18
42169;BME280;27838;43.858;25.974;2023-04-19T05:51:06;100684.28;;;13.97;67.65
42169;BME280;27838;43.858;25.974;2023-04-19T05:53:32;100687.75;;;13.99;67.57
42169;BME280;27838;43.858;25.974;2023-04-19T05:55:59;100688.63;;;14.00;67.24
42169;BME280;27838;43.858;25.974;2023-04-19T05:58:25;100649.59;;;13.79;67.61
42169;BME280;27838;43.858;25.974;2023-04-19T06:00:52;100679.81;;;14.04;67.14
42169;BME280;27838;43.858;25.974;2023-04-19T06:03:19;100684.13;;;14.06;67.02
42169;BME280;27838;43.858;25.974;2023-04-19T06:05:46;100687.59;;;14.08;66.46
42169;BME280;27838;43.858;25.974;2023-04-19T06:08:12;100686.69;;;14.11;66.29
42169;BME280;27838;43.858;25.974;2023-04-19T06:10:40;100687.53;;;14.13;65.82
42169;BME280;27838;43.858;25.974;2023-04-19T06:13:08;100684.06;;;14.12;65.80
42169;BME280;27838;43.858;25.974;2023-04-19T06:15:34;100673.63;;;14.08;66.28
42169;BME280;27838;43.858;25.974;2023-04-19T06:18:01;100677.09;;;14.08;66.52
42169;BME280;27838;43.858;25.974;2023-04-19T06:20:30;100674.44;;;14.13;66.79
42169;BME280;27838;43.858;25.974;2023-04-19T06:22:56;100681.41;;;14.14;66.70
42169;BME280;27838;43.858;25.974;2023-04-19T06:25:23;100677.03;;;14.14;66.79
42169;BME280;27838;43.858;25.974;2023-04-19T06:27:52;100670.94;;;14.14;65.93
42169;BME280;27838;43.858;25.974;2023-04-19T06:30:20;100672.72;;;14.12;66.47
42169;BME280;27838;43.858;25.974;2023-04-19T06:32:47;100679.63;;;14.18;67.29
42169;BME280;27838;43.858;25.974;2023-04-19T06:35:14;100677.84;;;14.18;67.42
42169;BME280;27838;43.858;25.974;2023-04-19T06:37:41;100683.91;;;14.22;67.53
42169;BME280;27838;43.858;25.974;2023-04-19T06:40:08;100683.00;;;14.24;67.37
42169;BME280;27838;43.858;25.974;2023-04-19T06:42:36;100682.03;;;14.30;66.62
42169;BME280;27838;43.858;25.974;2023-04-19T06:45:03;100680.25;;;14.32;66.27
42169;BME280;27838;43.858;25.974;2023-04-19T06:47:30;100679.28;;;14.38;66.06
42169;BME280;27838;43.858;25.974;2023-04-19T06:49:57;100685.28;;;14.44;65.80
42169;BME280;27838;43.858;25.974;2023-04-19T06:52:23;100689.56;;;14.50;65.62
42169;BME280;27838;43.858;25.974;2023-04-19T06:54:50;100680.78;;;14.52;64.92
42169;BME280;27838;43.858;25.974;2023-04-19T06:57:17;100682.47;;;14.58;64.45
42169;BME280;27838;43.858;25.974;2023-04-19T06:59:44;100685.06;;;14.60;63.63
42169;BME280;27838;43.858;25.974;2023-04-19T07:02:10;100679.84;;;14.58;63.75
42169;BME280;27838;43.858;25.974;2023-04-19T07:04:37;100686.78;;;14.61;64.03
42169;BME280;27838;43.858;25.974;2023-04-19T07:07:03;100689.34;;;14.65;63.77
42169;BME280;27838;43.858;25.974;2023-04-19T07:09:30;100691.06;;;14.68;63.95
42169;BME280;27838;43.858;25.974;2023-04-19T07:11:57;100696.31;;;14.68;64.23
42169;BME280;27838;43.858;25.974;2023-04-19T07:14:25;100696.25;;;14.69;63.97
42169;BME280;27838;43.858;25.974;2023-04-19T07:16:52;100697.94;;;14.73;64.08
42169;BME280;27838;43.858;25.974;2023-04-19T07:19:18;100695.28;;;14.77;63.15
42169;BME280;27838;43.858;25.974;2023-04-19T07:21:47;100692.59;;;14.78;62.84
42169;BME280;27838;43.858;25.974;2023-04-19T07:24:13;100687.31;;;14.81;62.48
42169;BME280;27838;43.858;25.974;2023-04-19T07:26:40;100691.63;;;14.85;62.51
42169;BME280;27838;43.858;25.974;2023-04-19T07:29:07;100682.00;;;14.84;62.16
42169;BME280;27838;43.858;25.974;2023-04-19T07:31:33;100695.91;;;14.89;62.88
42169;BME280;27838;43.858;25.974;2023-04-19T07:34:00;100694.13;;;14.91;62.70
42169;BME280;27838;43.858;25.974;2023-04-19T07:36:26;100695.94;;;14.88;63.15
42169;BME280;27838;43.858;25.974;2023-04-19T07:38:56;100688.81;;;14.95;62.77
42169;BME280;27838;43.858;25.974;2023-04-19T07:41:23;100694.84;;;15.00;62.87
42169;BME280;27838;43.858;25.974;2023-04-19T07:43:49;100701.75;;;15.04;62.76
42169;BME280;27838;43.858;25.974;2023-04-19T07:46:16;100705.13;;;15.12;62.81
42169;BME280;27838;43.858;25.974;2023-04-19T07:48:42;100697.28;;;15.10;63.32
42169;BME280;27838;43.858;25.974;2023-04-19T07:51:15;100704.16;;;15.16;63.71
42169;BME280;27838;43.858;25.974;2023-04-19T07:53:46;100712.84;;;15.20;63.96
42169;BME280;27838;43.858;25.974;2023-04-19T07:56:12;100701.53;;;15.16;64.60
42169;BME280;27838;43.858;25.974;2023-04-19T07:58:39;100703.13;;;15.23;64.56
42169;BME280;27838;43.858;25.974;2023-04-19T08:01:06;100701.28;;;15.28;64.34
42169;BME280;27838;43.858;25.974;2023-04-19T08:03:33;100695.00;;;15.36;63.87
42169;BME280;27838;43.858;25.974;2023-04-19T08:06:01;100695.72;;;15.44;63.50
42169;BME280;27838;43.858;25.974;2023-04-19T08:08:29;100695.78;;;15.41;62.72
42169;BME280;27838;43.858;25.974;2023-04-19T08:10:56;100696.50;;;15.49;62.43
42169;BME280;27838;43.858;25.974;2023-04-19T08:13:22;100690.34;;;15.52;62.00
42169;BME280;27838;43.858;25.974;2023-04-19T08:15:49;100673.75;;;15.48;62.06
42169;BME280;27838;43.858;25.974;2023-04-19T08:18:15;100696.16;;;15.66;62.86
42169;BME280;27838;43.858;25.974;2023-04-19T08:20:42;100695.13;;;15.73;62.35
42169;BME280;27838;43.858;25.974;2023-04-19T08:23:09;100693.28;;;15.78;62.54
42169;BME280;27838;43.858;25.974;2023-04-19T08:25:37;100674.97;;;15.74;62.55
42169;BME280;27838;43.858;25.974;2023-04-19T08:28:04;100679.06;;;15.89;62.56
42169;BME280;27838;43.858;25.974;2023-04-19T08:30:31;100685.06;;;15.94;62.19
42169;BME280;27838;43.858;25.974;2023-04-19T08:32:57;100683.25;;;15.97;61.36
42169;BME280;27838;43.858;25.974;2023-04-19T08:35:25;100691.13;;;15.97;61.64
42169;BME280;27838;43.858;25.974;2023-04-19T08:37:52;100693.59;;;16.03;59.99
42169;BME280;27838;43.858;25.974;2023-04-19T08:40:19;100683.84;;;16.09;59.22
42169;BME280;27838;43.858;25.974;2023-04-19T08:42:46;100679.34;;;16.14;59.56
42169;BME280;27838;43.858;25.974;2023-04-19T08:45:15;100681.84;;;16.20;59.97
42169;BME280;27838;43.858;25.974;2023-04-19T08:47:42;100686.13;;;16.22;59.53
42169;BME280;27838;43.858;25.974;2023-04-19T08:50:09;100684.06;;;16.35;59.26
42169;BME280;27838;43.858;25.974;2023-04-19T08:52:37;100681.22;;;16.45;59.08
42169;BME280;27838;43.858;25.974;2023-04-19T08:55:05;100669.44;;;16.59;59.24
42169;BME280;27838;43.858;25.974;2023-04-19T08:57:33;100681.50;;;16.68;60.35
42169;BME280;27838;43.858;25.974;2023-04-19T09:00:02;100681.97;;;16.83;61.16
42169;BME280;27838;43.858;25.974;2023-04-19T09:02:49;100679.78;;;17.00;61.18
42169;BME280;27838;43.858;25.974;2023-04-19T09:05:17;100679.38;;;17.15;58.63
42169;BME280;27838;43.858;25.974;2023-04-19T09:07:45;100682.03;;;17.14;57.71
42169;BME280;27838;43.858;25.974;2023-04-19T09:10:14;100682.13;;;17.12;57.53
42169;BME280;27838;43.858;25.974;2023-04-19T09:12:42;100681.97;;;17.17;58.43
42169;BME280;27838;43.858;25.974;2023-04-19T09:15:09;100685.69;;;17.10;58.35
42169;BME280;27838;43.858;25.974;2023-04-19T09:17:37;100686.09;;;16.94;58.53
42169;BME280;27838;43.858;25.974;2023-04-19T09:20:05;100688.78;;;16.93;58.75
42169;BME280;27838;43.858;25.974;2023-04-19T09:22:32;100680.91;;;16.91;59.49
42169;BME280;27838;43.858;25.974;2023-04-19T09:24:59;100673.81;;;16.95;59.27
42169;BME280;27838;43.858;25.974;2023-04-19T09:27:33;100672.56;;;17.08;58.85
42169;BME280;27838;43.858;25.974;2023-04-19T09:30:03;100683.91;;;17.10;58.58
42169;BME280;27838;43.858;25.974;2023-04-19T09:32:45;100689.13;;;17.12;58.02
42169;BME280;27838;43.858;25.974;2023-04-19T09:35:12;100676.00;;;17.10;58.02
42169;BME280;27838;43.858;25.974;2023-04-19T09:37:38;100686.47;;;17.13;57.71
42169;BME280;27838;43.858;25.974;2023-04-19T09:40:22;100673.09;;;17.21;58.58
42169;BME280;27838;43.858;25.974;2023-04-19T09:42:49;100673.88;;;17.25;57.59
42169;BME280;27838;43.858;25.974;2023-04-19T09:45:16;100689.69;;;17.25;57.04
42169;BME280;27838;43.858;25.974;2023-04-19T09:47:42;100676.69;;;17.17;56.84
42169;BME280;27838;43.858;25.974;2023-04-19T09:50:10;100671.44;;;17.17;53.96
42169;BME280;27838;43.858;25.974;2023-04-19T09:52:37;100666.94;;;17.21;53.80
42169;BME280;27838;43.858;25.974;2023-04-19T09:55:05;100672.91;;;17.27;54.17
42169;BME280;27838;43.858;25.974;2023-04-19T09:57:33;100668.25;;;17.37;53.66
42169;BME280;27838;43.858;25.974;2023-04-19T10:00:00;100668.78;;;17.48;53.69
42169;BME280;27838;43.858;25.974;2023-04-19T10:02:31;100677.19;;;17.61;53.94
42169;BME280;27838;43.858;25.974;2023-04-19T10:04:58;100669.06;;;17.69;54.03
42169;BME280;27838;43.858;25.974;2023-04-19T10:07:25;100664.56;;;17.72;54.10
42169;BME280;27838;43.858;25.974;2023-04-19T10:09:56;100681.50;;;17.64;53.82
42169;BME280;27838;43.858;25.974;2023-04-19T10:12:24;100679.97;;;17.57;53.93
42169;BME280;27838;43.858;25.974;2023-04-19T10:14:55;100671.41;;;17.48;52.91
42169;BME280;27838;43.858;25.974;2023-04-19T10:17:25;100665.25;;;17.49;52.55
42169;BME280;27838;43.858;25.974;2023-04-19T10:19:57;100668.78;;;17.48;53.16
42169;BME280;27838;43.858;25.974;2023-04-19T10:22:25;100668.47;;;17.59;53.40
42169;BME280;27838;43.858;25.974;2023-04-19T10:25:26;100665.97;;;17.54;51.93
42169;BME280;27838;43.858;25.974;2023-04-19T10:27:53;100670.25;;;17.59;52.34
42169;BME280;27838;43.858;25.974;2023-04-19T10:30:24;100662.13;;;17.65;52.82
42169;BME280;27838;43.858;25.974;2023-04-19T10:32:55;100665.56;;;17.68;53.70
42169;BME280;27838;43.858;25.974;2023-04-19T10:35:27;100660.44;;;17.64;53.60
42169;BME280;27838;43.858;25.974;2023-04-19T10:38:08;100659.50;;;17.65;53.31
42169;BME280;27838;43.858;25.974;2023-04-19T10:43:19;100660.34;;;17.67;53.09
42169;BME280;27838;43.858;25.974;2023-04-19T10:45:46;100660.22;;;17.70;53.20
42169;BME280;27838;43.858;25.974;2023-04-19T10:48:31;100655.84;;;17.70;53.16
42169;BME280;27838;43.858;25.974;2023-04-19T10:53:46;100659.06;;;17.50;53.26
42169;BME280;27838;43.858;25.974;2023-04-19T10:56:14;100659.25;;;17.44;53.75
42169;BME280;27838;43.858;25.974;2023-04-19T11:01:34;100655.28;;;17.29;54.20
42169;BME280;27838;43.858;25.974;2023-04-19T11:07:04;100668.41;;;17.31;54.71
42169;BME280;27838;43.858;25.974;2023-04-19T11:09:38;100661.72;;;17.19;54.76
42169;BME280;27838;43.858;25.974;2023-04-19T11:12:07;100664.34;;;17.19;55.67
42169;BME280;27838;43.858;25.974;2023-04-19T11:17:23;100653.22;;;17.09;56.04
42169;BME280;27838;43.858;25.974;2023-04-19T11:20:02;100648.66;;;17.16;56.21
42169;BME280;27838;43.858;25.974;2023-04-19T11:22:44;100644.13;;;17.21;55.50
42169;BME280;27838;43.858;25.974;2023-04-19T11:25:16;100644.63;;;17.34;54.93
42169;BME280;27838;43.858;25.974;2023-04-19T11:27:47;100655.88;;;17.39;54.59
42169;BME280;27838;43.858;25.974;2023-04-19T11:30:19;100649.59;;;17.43;54.21
42169;BME280;27838;43.858;25.974;2023-04-19T11:32:48;100645.16;;;17.45;54.86
42169;BME280;27838;43.858;25.974;2023-04-19T11:35:20;100641.53;;;17.49;54.68
42169;BME280;27838;43.858;25.974;2023-04-19T11:37:47;100631.00;;;17.49;54.27
42169;BME280;27838;43.858;25.974;2023-04-19T11:40:18;100626.38;;;17.56;54.52
42169;BME280;27838;43.858;25.974;2023-04-19T11:42:45;100629.59;;;17.66;54.37
42169;BME280;27838;43.858;25.974;2023-04-19T11:45:29;100626.97;;;17.66;54.39
42169;BME280;27838;43.858;25.974;2023-04-19T11:47:56;100620.75;;;17.68;54.26
42169;BME280;27838;43.858;25.974;2023-04-19T11:50:30;100617.09;;;17.72;53.96
42169;BME280;27838;43.858;25.974;2023-04-19T11:52:58;100611.50;;;17.83;54.45
42169;BME280;27838;43.858;25.974;2023-04-19T11:55:24;100605.91;;;17.94;53.58
42169;BME280;27838;43.858;25.974;2023-04-19T11:57:51;100601.19;;;18.04;52.97
42169;BME280;27838;43.858;25.974;2023-04-19T12:00:26;100602.50;;;18.17;52.98
42169;BME280;27838;43.858;25.974;2023-04-19T12:02:53;100605.66;;;18.28;51.78
42169;BME280;27838;43.858;25.974;2023-04-19T12:05:20;100589.69;;;18.33;51.59
42169;BME280;27838;43.858;25.974;2023-04-19T12:08:06;100586.91;;;18.36;51.55
42169;BME280;27838;43.858;25.974;2023-04-19T12:10:34;100577.94;;;18.42;49.91
42169;BME280;27838;43.858;25.974;2023-04-19T12:13:01;100578.91;;;18.64;51.03
42169;BME280;27838;43.858;25.974;2023-04-19T12:15:42;100582.00;;;18.76;50.36
42169;BME280;27838;43.858;25.974;2023-04-19T12:18:09;100570.22;;;18.86;49.92
42169;BME280;27838;43.858;25.974;2023-04-19T12:20:42;100564.84;;;18.89;49.69
42169;BME280;27838;43.858;25.974;2023-04-19T12:23:09;100553.81;;;19.01;49.68
42169;BME280;27838;43.858;25.974;2023-04-19T12:25:38;100551.50;;;19.16;49.93
42169;BME280;27838;43.858;25.974;2023-04-19T12:28:05;100548.69;;;19.20;49.49
42169;BME280;27838;43.858;25.974;2023-04-19T12:30:31;100544.16;;;19.24;48.83
42169;BME280;27838;43.858;25.974;2023-04-19T12:32:59;100549.97;;;19.32;49.07
42169;BME280;27838;43.858;25.974;2023-04-19T12:35:26;100542.84;;;19.34;49.62
42169;BME280;27838;43.858;25.974;2023-04-19T12:37:55;100541.50;;;19.24;49.62
42169;BME280;27838;43.858;25.974;2023-04-19T12:40:23;100528.41;;;19.21;49.99
42169;BME280;27838;43.858;25.974;2023-04-19T12:42:50;100540.34;;;19.31;49.81
42169;BME280;27838;43.858;25.974;2023-04-19T12:45:17;100533.22;;;19.33;49.74
42169;BME280;27838;43.858;25.974;2023-04-19T12:47:45;100524.00;;;19.43;49.32
42169;BME280;27838;43.858;25.974;2023-04-19T12:50:13;100524.63;;;19.50;48.81
42169;BME280;27838;43.858;25.974;2023-04-19T12:52:44;100528.13;;;19.51;48.50
42169;BME280;27838;43.858;25.974;2023-04-19T12:55:10;100523.88;;;19.47;48.67
42169;BME280;27838;43.858;25.974;2023-04-19T12:57:37;100524.69;;;19.49;48.25